Mount Ida, Arkansas
Current Conditions -  °F | °C
As of 3:25 AM on Monday 24 Nov 2014 (Local Time) from KMWT Reporting Station
Overcast Overcast  
Wind Chill: 43°   Ceiling: 3200
Heat Index: 47°   Visibility: 10mi
Dew Point: 36°   Wind: 9mph
Humidity: 66%   Direction: 330°NNW
Pressure: 29.73"   Gusts: 20mph
Location:  34.56°N, 93.63°W
Report Text: KMWT 240925Z AUTO 33008G17KT 300V360 10SM SCT023 BKN032 OVC050 08/02 A2973 RMK AO2 T00830022
Loading
Personal Weather Stations






























Interactive Weather Map New forecast layout! Learn more

10-Day Weather Forecast

Advertisements
Track Severe Weather on mobile